Time;durP1;ratioP1;P1;durP2;ratioP2;P2;SDS_P1;SDS_P2;PMS_P1;PMS_P2;Temp;Humidity;BMP_temperature;BMP_pressure;BME280_temperature;BME280_humidity;BME280_pressure;Samples;Min_cycle;Max_cycle;Signal;HPM_P1;HPM_P2
2022/02/05 00:01:42;;;;;;;18.23;8.73;;;3.60;99.90;;;;;;5068499;28;20519;-61
2022/02/05 00:04:12;;;;;;;18.42;9.10;;;3.60;99.90;;;;;;5065565;28;20085;-61
2022/02/05 00:06:41;;;;;;;23.08;11.05;;;3.60;99.90;;;;;;5067100;28;20025;-61
2022/02/05 00:09:28;;;;;;;19.90;10.60;;;3.50;99.90;;;;;;5067193;28;20499;-57
2022/02/05 00:41:24;;;;;;;21.45;10.90;;;3.90;99.90;;;;;;5070663;28;20024;-60
2022/02/05 00:43:56;;;;;;;22.67;10.38;;;3.80;99.90;;;;;;5070450;28;20052;-60
2022/02/05 00:46:24;;;;;;;25.83;11.00;;;3.90;99.90;;;;;;5069990;28;20552;-60
2022/02/05 00:48:50;;;;;;;21.33;9.80;;;3.90;99.90;;;;;;5069349;28;20040;-61
2022/02/05 00:51:44;;;;;;;22.30;9.52;;;3.90;99.90;;;;;;5070880;28;20025;-63
2022/02/05 00:54:09;;;;;;;20.02;8.90;;;3.90;99.90;;;;;;5070599;28;20037;-61
2022/02/05 00:59:19;;;;;;;22.75;10.25;;;4.00;99.90;;;;;;5091188;23;20051;-52
2022/02/05 01:01:46;;;;;;;22.15;10.07;;;3.90;99.90;;;;;;5071083;28;20048;-52
2022/02/05 01:04:12;;;;;;;22.98;10.05;;;3.90;99.90;;;;;;5070071;28;20401;-54
2022/02/05 01:06:40;;;;;;;23.58;10.90;;;3.80;99.90;;;;;;5071565;28;20029;-53
2022/02/05 01:09:11;;;;;;;14.98;7.50;;;3.80;99.90;;;;;;5071150;28;20036;-55
2022/02/05 01:11:37;;;;;;;19.17;9.45;;;3.90;99.90;;;;;;5071178;28;20108;-55
2022/02/05 01:14:05;;;;;;;16.40;8.23;;;3.90;99.90;;;;;;5071374;28;20052;-54
2022/02/05 01:18:56;;;;;;;19.02;9.25;;;3.90;99.90;;;;;;5071392;28;20029;-57
2022/02/05 01:21:36;;;;;;;;;;;;;;;;;;;;;
2022/02/05 01:23:56;;;;;;;17.25;8.18;;;3.90;99.90;;;;;;5054109;28;20021;-56
2022/02/05 01:28:54;;;;;;;21.70;8.57;;;3.90;99.90;;;;;;5053736;28;20025;-56
2022/02/05 01:31:25;;;;;;;23.20;8.23;;;3.80;99.90;;;;;;5053336;28;20032;-54
2022/02/05 01:34:01;;;;;;;20.50;8.93;;;3.80;99.90;;;;;;5053757;28;20020;-54
2022/02/05 01:56:10;;;;;;;16.27;7.43;;;3.70;99.90;;;;;;5037503;28;20032;-53
2022/02/05 01:58:26;;;;;;;17.55;7.55;;;3.70;99.90;;;;;;5057485;28;20040;-53
2022/02/05 02:11:47;;;;;;;23.42;9.65;;;3.50;99.90;;;;;;5073116;28;20070;-51
2022/02/05 02:22:04;;;;;;;19.10;8.27;;;3.40;99.90;;;;;;5072861;28;20043;-57
2022/02/05 02:27:34;;;;;;;18.88;9.70;;;3.30;99.90;;;;;;5031632;28;20040;-53
2022/02/05 02:30:07;;;;;;;20.15;9.23;;;3.30;99.90;;;;;;5072757;28;20024;-53
2022/02/05 02:32:36;;;;;;;20.67;9.63;;;3.30;99.90;;;;;;5072712;28;20024;-53
2022/02/05 02:35:08;;;;;;;20.42;9.50;;;3.30;99.90;;;;;;5054459;28;20033;-52
2022/02/05 02:37:50;;;;;;;21.70;9.50;;;3.30;99.90;;;;;;5072582;28;20021;-56
2022/02/05 02:42:45;;;;;;;19.60;8.77;;;3.20;99.90;;;;;;5071998;28;20021;-52
2022/02/05 02:45:11;;;;;;;19.38;8.48;;;3.20;99.90;;;;;;5071780;28;20410;-56
2022/02/05 02:47:41;;;;;;;19.80;8.65;;;3.30;99.90;;;;;;5072533;28;20040;-56
2022/02/05 02:50:15;;;;;;;19.52;9.88;;;3.20;99.90;;;;;;5072324;28;20025;-54
2022/02/05 02:58:10;;;;;;;19.58;8.98;;;3.20;99.90;;;;;;5072201;28;20095;-56
2022/02/05 03:00:35;;;;;;;22.63;9.23;;;3.20;99.90;;;;;;5054342;28;20064;-53
2022/02/05 03:03:01;;;;;;;23.50;9.98;;;3.20;99.90;;;;;;5072262;28;20059;-51
2022/02/05 03:05:27;;;;;;;20.30;9.48;;;3.10;99.90;;;;;;5072019;28;20028;-51
2022/02/05 03:07:52;;;;;;;20.35;9.30;;;3.10;99.90;;;;;;5072193;28;20090;-53
2022/02/05 03:10:18;;;;;;;15.40;8.32;;;3.10;99.90;;;;;;5053994;28;20396;-56
2022/02/05 03:12:44;;;;;;;19.77;8.93;;;3.00;99.90;;;;;;5072134;28;20025;-55
2022/02/05 03:15:13;;;;;;;27.27;9.80;;;3.10;99.90;;;;;;5071715;28;20013;-53
2022/02/05 03:17:42;;;;;;;24.00;9.30;;;3.10;99.90;;;;;;5072129;28;20397;-62
2022/02/05 03:20:09;;;;;;;20.20;9.55;;;3.10;99.90;;;;;;5054109;28;20035;-56
2022/02/05 03:22:34;;;;;;;19.63;8.55;;;3.00;99.90;;;;;;5071955;28;20477;-51
2022/02/05 03:25:03;;;;;;;20.02;9.27;;;3.00;99.90;;;;;;5071773;28;20060;-51
2022/02/05 03:27:28;;;;;;;25.02;9.32;;;3.00;99.90;;;;;;5072026;28;20571;-55
2022/02/05 03:29:54;;;;;;;21.45;9.45;;;3.00;99.90;;;;;;5071686;28;20064;-53
2022/02/05 03:32:22;;;;;;;21.00;9.82;;;3.10;99.90;;;;;;5072051;28;20048;-53
2022/02/05 03:34:48;;;;;;;20.52;8.80;;;3.10;99.90;;;;;;5071860;28;20024;-54
2022/02/05 03:37:15;;;;;;;20.58;9.15;;;3.00;99.90;;;;;;5072187;28;20108;-50
2022/02/05 03:39:40;;;;;;;18.13;8.20;;;3.10;99.90;;;;;;5071937;28;20031;-56
2022/02/05 03:42:06;;;;;;;22.00;9.00;;;3.10;99.90;;;;;;5071752;28;20024;-54
2022/02/05 03:44:32;;;;;;;19.88;10.45;;;3.20;99.90;;;;;;5071720;28;20032;-53
2022/02/05 03:46:58;;;;;;;19.48;8.95;;;3.30;99.90;;;;;;5053834;28;20476;-51
2022/02/05 03:49:24;;;;;;;20.00;8.98;;;3.50;99.90;;;;;;5071676;28;20029;-52
2022/02/05 03:51:50;;;;;;;19.35;8.15;;;3.40;99.90;;;;;;5071957;28;20064;-54
2022/02/05 03:54:19;;;;;;;18.98;9.35;;;3.40;99.90;;;;;;5071879;28;20025;-54
2022/02/05 03:56:45;;;;;;;19.25;8.85;;;3.50;99.90;;;;;;5075526;28;20056;-54
2022/02/05 03:59:10;;;;;;;21.35;8.75;;;3.50;99.90;;;;;;5075489;28;20066;-56
2022/02/05 04:01:36;;;;;;;29.52;9.57;;;3.50;99.90;;;;;;5075790;28;20028;-54
2022/02/05 04:04:02;;;;;;;23.85;8.65;;;3.50;99.90;;;;;;5075369;28;20385;-52
2022/02/05 04:06:27;;;;;;;18.77;8.90;;;3.60;99.90;;;;;;5075501;28;20067;-50
2022/02/05 04:08:56;;;;;;;17.67;7.80;;;3.60;99.90;;;;;;5075289;28;20028;-53
2022/02/05 04:11:33;;;;;;;20.38;8.15;;;3.60;99.90;;;;;;5075143;28;20052;-51
2022/02/05 04:16:43;;;;;;;19.05;7.93;;;3.70;99.90;;;;;;5075628;28;20036;-52
2022/02/05 04:19:08;;;;;;;22.00;8.10;;;3.70;99.90;;;;;;5057402;28;20020;-55
2022/02/05 04:21:34;;;;;;;19.05;7.38;;;3.70;99.90;;;;;;5075331;28;20024;-51
2022/02/05 04:24:01;;;;;;;19.15;7.80;;;3.70;99.90;;;;;;5074648;28;20119;-55
2022/02/05 04:26:28;;;;;;;16.42;7.10;;;3.70;99.90;;;;;;5075054;28;20049;-52
2022/02/05 04:28:54;;;;;;;19.10;7.30;;;3.80;99.90;;;;;;5075188;28;20103;-55
2022/02/05 04:31:19;;;;;;;19.95;7.47;;;3.80;99.90;;;;;;5074924;28;20028;-52
2022/02/05 04:33:45;;;;;;;18.88;8.38;;;3.80;99.90;;;;;;5074959;28;20036;-54
2022/02/05 04:36:12;;;;;;;15.38;7.25;;;3.80;99.90;;;;;;5074763;28;20016;-50
2022/02/05 04:38:40;;;;;;;16.55;7.80;;;3.80;99.90;;;;;;5074954;28;20381;-51
2022/02/05 04:51:51;;;;;;;21.45;7.38;;;3.50;99.90;;;;;;5074523;28;20506;-51
2022/02/05 05:04:52;;;;;;;20.13;8.90;;;3.40;99.90;;;;;;5077479;28;19911;-55
2022/02/05 05:15:28;;;;;;;18.25;8.45;;;3.40;99.90;;;;;;5074229;28;20032;-53
2022/02/05 05:20:42;;;;;;;22.25;8.05;;;3.30;99.90;;;;;;5074301;28;20091;-50
2022/02/05 05:23:08;;;;;;;20.05;7.68;;;3.30;99.90;;;;;;5074229;28;20434;-53
2022/02/05 05:25:33;;;;;;;17.13;7.53;;;3.30;99.90;;;;;;5073701;28;20162;-54
2022/02/05 05:27:59;;;;;;;24.10;8.18;;;3.30;99.90;;;;;;5073877;28;20031;-55
2022/02/05 05:30:25;;;;;;;23.00;8.35;;;3.30;99.90;;;;;;5073738;28;20071;-56
2022/02/05 05:32:50;;;;;;;20.75;9.18;;;3.20;99.90;;;;;;5055934;28;20020;-51
2022/02/05 05:35:16;;;;;;;17.80;7.55;;;3.20;99.90;;;;;;5073466;28;20080;-52
2022/02/05 05:37:47;;;;;;;22.65;9.50;;;3.20;99.90;;;;;;5056013;28;20023;-50
2022/02/05 05:40:12;;;;;;;20.67;8.80;;;3.20;99.90;;;;;;5073648;28;20035;-55
2022/02/05 05:42:41;;;;;;;21.50;8.48;;;3.20;99.90;;;;;;5073743;28;20041;-54
2022/02/05 05:45:24;;;;;;;21.55;8.82;;;3.30;99.90;;;;;;5073346;28;20407;-55
2022/02/05 05:53:03;;;;;;;20.13;8.57;;;3.40;99.90;;;;;;5073711;28;20074;-55
2022/02/05 05:55:29;;;;;;;25.55;8.15;;;3.50;99.90;;;;;;5072934;28;20070;-56
2022/02/05 05:57:56;;;;;;;21.83;8.75;;;3.50;99.90;;;;;;5054934;28;20028;-53
2022/02/05 06:00:22;;;;;;;20.23;7.45;;;3.60;99.90;;;;;;5073153;28;20534;-55
2022/02/05 06:02:47;;;;;;;16.90;7.90;;;3.60;99.90;;;;;;5073355;28;20040;-50
2022/02/05 06:05:14;;;;;;;21.00;8.45;;;3.60;99.90;;;;;;5072889;28;20525;-52
2022/02/05 06:07:39;;;;;;;17.75;8.10;;;3.50;99.90;;;;;;5073085;28;20029;-55
2022/02/05 06:10:05;;;;;;;22.95;8.85;;;3.40;99.90;;;;;;5073415;28;20115;-54
2022/02/05 06:12:31;;;;;;;19.58;7.97;;;3.40;99.90;;;;;;5073392;28;20146;-51
2022/02/05 06:14:59;;;;;;;24.65;8.88;;;3.50;99.90;;;;;;5072822;28;20040;-52
2022/02/05 06:17:25;;;;;;;22.30;8.40;;;3.50;99.90;;;;;;5055260;28;20472;-50
2022/02/05 06:19:52;;;;;;;20.50;8.38;;;3.50;99.90;;;;;;5073119;28;20112;-52
2022/02/05 06:22:17;;;;;;;21.08;8.38;;;3.40;99.90;;;;;;5073243;28;20052;-57
2022/02/05 06:24:43;;;;;;;17.75;7.85;;;3.40;99.90;;;;;;5055075;28;20059;-50
2022/02/05 06:27:09;;;;;;;26.23;9.35;;;3.40;99.90;;;;;;5055196;28;20028;-51
2022/02/05 06:29:35;;;;;;;20.77;9.27;;;3.50;99.90;;;;;;5072967;28;20126;-52
2022/02/05 06:32:01;;;;;;;23.58;9.05;;;3.40;99.90;;;;;;5073062;28;20158;-55
2022/02/05 06:34:27;;;;;;;23.65;10.35;;;3.40;99.90;;;;;;5077899;28;20024;-53
2022/02/05 06:36:53;;;;;;;20.35;8.52;;;3.40;99.90;;;;;;5101877;28;20019;-52
2022/02/05 06:39:20;;;;;;;20.85;8.68;;;3.40;99.90;;;;;;5112876;28;20121;-52
2022/02/05 06:41:46;;;;;;;19.75;7.90;;;3.40;99.90;;;;;;5080674;28;20024;-54
2022/02/05 06:44:13;;;;;;;20.02;7.78;;;3.40;99.90;;;;;;5091941;28;20031;-56
2022/02/05 06:46:39;;;;;;;18.77;8.45;;;3.40;99.90;;;;;;5074536;28;20024;-53
2022/02/05 06:49:06;;;;;;;27.40;8.93;;;3.50;99.90;;;;;;5077920;28;20387;-53
2022/02/05 06:51:31;;;;;;;18.13;7.45;;;3.50;99.90;;;;;;5112795;28;20110;-53
2022/02/05 06:53:57;;;;;;;20.42;8.55;;;3.50;99.90;;;;;;5112502;28;20135;-54
2022/02/05 06:56:23;;;;;;;18.85;7.85;;;3.50;99.90;;;;;;5112681;28;20027;-51
2022/02/05 06:58:49;;;;;;;24.58;8.93;;;3.40;99.90;;;;;;5134771;22;20057;-63
2022/02/05 07:01:15;;;;;;;21.40;7.95;;;3.40;99.90;;;;;;5051220;28;20035;-63
2022/02/05 07:03:40;;;;;;;17.88;7.50;;;3.40;99.90;;;;;;5050438;28;20455;-63
2022/02/05 07:06:06;;;;;;;17.70;7.82;;;3.40;99.90;;;;;;5053756;28;20031;-63
2022/02/05 07:08:32;;;;;;;23.45;7.30;;;3.40;99.90;;;;;;5054788;28;20119;-64
2022/02/05 07:10:58;;;;;;;15.35;7.45;;;3.40;99.90;;;;;;5072518;28;20162;-66
2022/02/05 07:13:24;;;;;;;18.05;7.13;;;3.40;99.90;;;;;;5072403;28;20119;-66
2022/02/05 07:16:06;;;;;;;19.23;8.38;;;3.60;99.90;;;;;;5072672;28;20054;-64
2022/02/05 07:18:42;;;;;;;18.02;8.07;;;3.50;99.90;;;;;;5072355;28;20036;-64
2022/02/05 07:21:14;;;;;;;26.23;8.75;;;3.40;99.90;;;;;;5090755;28;20105;-65
2022/02/05 07:24:19;;;;;;;24.60;9.05;;;3.40;99.90;;;;;;5090746;28;20023;-63
2022/02/05 07:29:14;;;;;;;18.83;7.82;;;3.20;99.90;;;;;;5090906;28;20449;-65
2022/02/05 07:31:46;;;;;;;19.90;8.07;;;3.20;99.90;;;;;;5076814;28;20035;-64
2022/02/05 07:34:13;;;;;;;20.15;7.85;;;3.20;99.90;;;;;;5094871;28;20473;-63
2022/02/05 07:36:40;;;;;;;19.67;7.68;;;3.20;99.90;;;;;;5077294;28;20074;-65
2022/02/05 07:39:09;;;;;;;20.40;8.13;;;3.10;99.90;;;;;;5095317;28;20016;-64
2022/02/05 07:41:37;;;;;;;18.45;8.25;;;3.10;99.90;;;;;;5094566;28;20031;-65
2022/02/05 07:44:04;;;;;;;23.95;9.15;;;3.10;99.90;;;;;;5094216;28;20492;-65
2022/02/05 07:46:30;;;;;;;17.02;6.93;;;3.20;99.90;;;;;;5094354;28;20452;-63
2022/02/05 07:48:56;;;;;;;22.98;8.55;;;3.30;99.90;;;;;;5094451;28;20077;-65
2022/02/05 07:51:22;;;;;;;20.73;7.80;;;3.40;99.90;;;;;;5094241;28;20028;-64
2022/02/05 07:53:47;;;;;;;17.65;7.38;;;3.40;99.90;;;;;;5076035;28;20016;-63
2022/02/05 07:56:14;;;;;;;23.05;7.97;;;3.50;99.90;;;;;;5094266;28;20020;-64
2022/02/05 07:58:39;;;;;;;21.58;8.38;;;3.50;99.90;;;;;;5075984;28;20115;-63
2022/02/05 08:01:05;;;;;;;21.27;9.85;;;3.50;99.90;;;;;;5094086;28;20523;-59
2022/02/05 08:03:31;;;;;;;23.63;9.35;;;3.50;99.90;;;;;;5094847;28;20032;-64
2022/02/05 08:05:59;;;;;;;19.80;8.38;;;3.50;99.90;;;;;;5093945;28;20028;-59
2022/02/05 08:08:27;;;;;;;20.90;7.73;;;3.40;99.90;;;;;;5093926;28;20101;-62
2022/02/05 08:11:03;;;;;;;21.70;8.35;;;3.40;99.90;;;;;;5093875;28;20293;-64
2022/02/05 08:13:31;;;;;;;22.60;9.07;;;3.40;99.90;;;;;;5093918;28;20079;-63
2022/02/05 08:16:10;;;;;;;23.52;8.98;;;3.50;99.90;;;;;;5093616;28;20020;-59
2022/02/05 08:18:37;;;;;;;18.80;8.55;;;;;;;;;;5093765;28;20025;-64
2022/02/05 08:21:03;;;;;;;17.00;7.43;;;;;;;;;;5093577;28;20066;-63
2022/02/05 08:23:31;;;;;;;25.55;7.65;;;;;;;;;;5075706;28;20401;-64
2022/02/05 08:25:57;;;;;;;20.15;9.15;;;;;;;;;;5075330;28;20024;-63
2022/02/05 08:28:24;;;;;;;18.25;6.63;;;;;;;;;;5093507;28;20492;-63
2022/02/05 08:30:52;;;;;;;21.25;7.40;;;;;;;;;;5093590;28;20028;-64
2022/02/05 08:33:19;;;;;;;22.00;8.80;;;;;;;;;;5093374;28;20016;-64
2022/02/05 08:35:45;;;;;;;16.65;7.65;;;;;;;;;;5093153;28;20020;-64
2022/02/05 08:38:11;;;;;;;20.48;7.65;;;;;;;;;;5075053;28;20086;-63
2022/02/05 08:40:37;;;;;;;18.27;6.72;;;;;;;;;;5092961;28;20032;-59
2022/02/05 08:43:03;;;;;;;19.83;7.25;;;;;;;;;;5093401;28;20099;-63
2022/02/05 08:45:29;;;;;;;18.38;7.55;;;;;;;;;;5093398;28;20075;-64
2022/02/05 08:47:55;;;;;;;22.85;8.38;;;;;;;;;;5093685;28;20104;-61
2022/02/05 08:50:21;;;;;;;18.10;7.35;;;;;;;;;;5093064;28;20107;-64
2022/02/05 08:52:52;;;;;;;22.48;9.13;;;;;;;;;;5093217;28;20028;-65
2022/02/05 08:55:20;;;;;;;17.27;8.00;;;;;;;;;;5092965;28;20016;-64
2022/02/05 08:57:46;;;;;;;20.02;7.43;;;;;;;;;;5093010;28;20012;-65
2022/02/05 09:00:14;;;;;;;25.45;8.75;;;;;;;;;;5092783;28;20190;-64
2022/02/05 09:02:57;;;;;;;19.38;8.20;;;;;;;;;;5093055;28;20048;-65
2022/02/05 09:07:57;;;;;;;22.40;7.95;;;;;;;;;;5093005;28;20511;-64
2022/02/05 09:15:59;;;;;;;18.13;7.35;;;;;;;;;;5029737;28;20069;-64
2022/02/05 09:18:27;;;;;;;22.55;7.68;;;;;;;;;;5029989;28;20470;-63
2022/02/05 09:20:53;;;;;;;17.33;6.10;;;;;;;;;;5060097;28;20028;-65
2022/02/05 09:23:19;;;;;;;19.00;7.63;;;;;;;;;;5092781;28;20177;-64
2022/02/05 09:25:45;;;;;;;24.17;7.63;;;;;;;;;;5092680;28;20073;-66
2022/02/05 09:28:11;;;;;;;28.50;8.48;;;;;;;;;;5092546;28;20221;-66
2022/02/05 09:30:50;;;;;;;22.77;7.63;;;;;;;;;;5092184;28;20020;-66
2022/02/05 09:33:17;;;;;;;21.38;7.38;;;;;;;;;;5094701;28;20028;-56
2022/02/05 09:35:43;;;;;;;16.88;8.05;;;;;;;;;;5096648;28;20020;-51
2022/02/05 09:38:09;;;;;;;22.35;8.10;;;;;;;;;;5097012;28;20020;-51
2022/02/05 09:40:35;;;;;;;20.13;8.13;;;3.60;99.90;;;;;;5095847;28;20415;-52
2022/02/05 09:43:00;;;;;;;18.08;7.43;;;4.80;99.90;;;;;;5096021;28;20046;-56
2022/02/05 09:45:26;;;;;;;19.55;6.70;;;4.90;99.90;;;;;;5095900;28;20147;-55
2022/02/05 09:47:54;;;;;;;16.98;6.70;;;5.00;99.90;;;;;;5095737;28;20056;-55
2022/02/05 09:50:21;;;;;;;18.08;6.50;;;5.00;99.90;;;;;;5095573;28;20016;-55
2022/02/05 09:52:52;;;;;;;16.15;6.28;;;5.10;99.90;;;;;;5093169;28;20047;-50
2022/02/05 09:55:18;;;;;;;17.98;7.60;;;5.10;99.90;;;;;;5085940;28;20024;-55
2022/02/05 09:57:44;;;;;;;16.23;7.68;;;;;;;;;;5082457;28;20016;-49
2022/02/05 10:00:17;;;;;;;18.60;7.28;;;;;;;;;;5084983;28;20036;-50
2022/02/05 10:02:43;;;;;;;20.75;8.52;;;;;;;;;;5083837;28;20040;-55
2022/02/05 10:05:16;;;;;;;18.58;6.70;;;;;;;;;;5089754;28;20020;-53
2022/02/05 10:07:53;;;;;;;17.85;6.93;;;;;;;;;;5095242;28;20039;-52
2022/02/05 10:10:19;;;;;;;17.23;6.85;;;;;;;;;;5094862;28;20543;-56
2022/02/05 10:12:45;;;;;;;17.10;5.95;;;;;;;;;;5095679;28;20027;-54
2022/02/05 10:15:11;;;;;;;17.10;7.05;;;;;;;;;;5095585;28;20383;-53
2022/02/05 10:17:44;;;;;;;22.83;7.90;;;;;;;;;;5077065;28;20055;-54
2022/02/05 10:20:12;;;;;;;21.02;6.63;;;;;;;;;;5095491;28;20028;-55
2022/02/05 10:22:39;;;;;;;19.75;6.50;;;;;;;;;;5095375;28;20031;-54
2022/02/05 10:25:25;;;;;;;25.25;6.78;;;;;;;;;;5076556;28;20039;-54
2022/02/05 10:27:52;;;;;;;21.25;7.78;;;;;;;;;;5095556;28;20032;-55
2022/02/05 10:30:22;;;;;;;17.30;8.07;;;;;;;;;;5095122;28;20028;-53
2022/02/05 10:32:51;;;;;;;21.15;6.82;;;;;;;;;;5095008;28;20066;-54
2022/02/05 10:35:31;;;;;;;18.58;7.57;;;;;;;;;;5076428;28;20123;-57
2022/02/05 10:38:34;;;;;;;16.48;6.60;;;;;;;;;;5093166;28;20024;-67
2022/02/05 10:40:50;;;;;;;15.55;6.50;;;;;;;;;;5089150;28;20121;-68
2022/02/05 10:43:31;;;;;;;19.45;6.50;;;;;;;;;;5091700;28;20024;-68
2022/02/05 10:45:58;;;;;;;18.75;5.97;;;;;;;;;;5091222;28;20027;-67
2022/02/05 10:48:25;;;;;;;19.97;8.00;;;;;;;;;;5072510;28;20028;-67
2022/02/05 10:50:53;;;;;;;16.88;7.00;;;;;;;;;;5072839;28;20270;-68
2022/02/05 10:53:24;;;;;;;17.63;6.80;;;;;;;;;;5090797;28;20103;-67
2022/02/05 10:59:37;;;;;;;22.95;7.18;;;;;;;;;;5089498;28;20411;-69
2022/02/05 11:06:59;;;;;;;18.48;6.90;;;;;;;;;;5091045;28;20123;-68
2022/02/05 11:09:25;;;;;;;17.52;7.25;;;;;;;;;;5090604;28;20031;-67
2022/02/05 11:20:10;;;;;;;18.27;7.55;;;;;;;;;;5090366;28;20034;-68
2022/02/05 11:22:56;;;;;;;13.48;6.28;;;;;;;;;;5090489;28;20158;-68
2022/02/05 11:25:22;;;;;;;18.98;6.93;;;;;;;;;;5089525;28;20032;-67
2022/02/05 11:27:49;;;;;;;16.48;7.00;;;;;;;;;;5072147;28;20030;-67
2022/02/05 11:30:21;;;;;;;17.98;7.97;;;;;;;;;;5072250;28;20025;-67
2022/02/05 11:32:50;;;;;;;19.10;7.88;;;;;;;;;;5090518;28;20080;-67
2022/02/05 11:35:29;;;;;;;16.58;6.57;;;;;;;;;;5089951;28;20088;-67
2022/02/05 11:37:56;;;;;;;17.58;7.45;;;;;;;;;;5090181;28;20027;-66
2022/02/05 11:40:41;;;;;;;21.25;7.53;;;;;;;;;;5090022;28;20020;-67
2022/02/05 11:43:19;;;;;;;18.70;6.60;;;;;;;;;;5090291;28;20107;-68
2022/02/05 11:45:46;;;;;;;17.23;7.32;;;;;;;;;;5071701;28;20024;-67
2022/02/05 11:48:44;;;;;;;20.73;7.40;;;;;;;;;;5090060;28;20035;-67
2022/02/05 11:51:10;;;;;;;;;;;;;;;;;;5035450;28;20092;-67
2022/02/05 11:53:54;;;;;;;19.50;6.20;;;;;;;;;;5090283;28;19911;-67
2022/02/05 11:56:20;;;;;;;22.17;7.45;;;;;;;;;;5089749;28;20094;-65
2022/02/05 11:58:56;;;;;;;18.33;6.38;;;;;;;;;;5089567;28;20020;-68
2022/02/05 12:01:36;;;;;;;19.48;6.85;;;;;;;;;;5089871;28;20513;-67
2022/02/05 12:04:10;;;;;;;14.88;6.55;;;;;;;;;;5071511;28;20480;-67
2022/02/05 12:06:46;;;;;;;18.77;6.65;;;;;;;;;;5089305;28;20016;-67
2022/02/05 12:09:31;;;;;;;19.08;7.22;;;;;;;;;;5088754;28;20407;-66
2022/02/05 12:11:57;;;;;;;17.35;6.93;;;;;;;;;;5089843;28;20028;-68
2022/02/05 12:14:23;;;;;;;17.02;6.38;;;;;;;;;;5090022;28;20129;-66
2022/02/05 12:17:11;;;;;;;18.00;6.30;;;;;;;;;;5074492;28;20028;-67
2022/02/05 12:19:56;;;;;;;16.00;6.18;;;;;;;;;;5093799;28;20472;-68
2022/02/05 12:22:29;;;;;;;21.25;6.70;;;;;;;;;;5093684;28;20040;-67
2022/02/05 12:25:13;;;;;;;15.68;6.53;;;;;;;;;;5093398;28;20024;-68
2022/02/05 12:27:39;;;;;;;17.85;5.90;;;;;;;;;;5093369;28;20047;-68
2022/02/05 12:30:23;;;;;;;15.75;6.18;;;;;;;;;;5093698;28;20447;-68
2022/02/05 12:32:50;;;;;;;13.90;6.00;;;;;;;;;;5093571;28;20658;-66
2022/02/05 12:35:16;;;;;;;17.88;6.50;;;;;;;;;;5093171;28;20023;-68
2022/02/05 12:37:42;;;;;;;17.02;6.60;;;;;;;;;;5093303;28;20455;-68
2022/02/05 12:40:08;;;;;;;20.85;6.57;;;;;;;;;;5093103;28;20024;-69
2022/02/05 12:42:38;;;;;;;15.30;5.65;;;;;;;;;;5092967;28;20437;-67
2022/02/05 12:45:04;;;;;;;15.45;6.00;;;;;;;;;;5092986;28;20040;-66
2022/02/05 12:47:36;;;;;;;15.43;5.63;;;;;;;;;;5093001;28;20077;-68
2022/02/05 12:50:09;;;;;;;14.60;5.60;;;;;;;;;;5074959;28;20073;-68
2022/02/05 12:52:36;;;;;;;17.17;5.60;;;;;;;;;;5092886;28;20489;-64
2022/02/05 12:55:03;;;;;;;18.63;7.43;;;;;;;;;;5093044;28;20028;-65
2022/02/05 12:57:30;;;;;;;14.93;5.93;;;;;;;;;;5074899;28;20024;-64
2022/02/05 13:00:03;;;;;;;15.77;6.00;;;;;;;;;;5092848;28;20035;-64
2022/02/05 13:02:38;;;;;;;14.23;5.85;;;;;;;;;;5125203;23;20379;-68
2022/02/05 13:05:05;;;;;;;17.27;7.13;;;;;;;;;;5092978;28;20028;-66
2022/02/05 13:07:32;;;;;;;16.73;6.10;;;;;;;;;;5094751;28;20434;-67
2022/02/05 13:10:03;;;;;;;17.92;6.22;;;;;;;;;;5093150;28;20069;-66
2022/02/05 13:12:37;;;;;;;14.10;6.15;;;;;;;;;;5092945;28;20026;-64
2022/02/05 13:15:24;;;;;;;15.63;6.60;;;;;;;;;;5092869;28;20060;-66
2022/02/05 13:36:09;;;;;;;17.75;6.63;;;;;;;;;;5072816;28;20035;-66
2022/02/05 13:38:50;;;;;;;18.13;7.43;;;;;;;;;;5080308;28;20488;-65
2022/02/05 13:41:16;;;;;;;15.90;6.53;;;;;;;;;;5081608;28;20106;-64
2022/02/05 13:43:56;;;;;;;13.90;6.55;;;5.20;99.90;;;;;;5082440;28;20024;-64
2022/02/05 13:46:21;;;;;;;17.02;6.82;;;7.30;99.90;;;;;;5080377;28;20039;-65
2022/02/05 13:48:47;;;;;;;16.00;6.22;;;7.00;99.90;;;;;;5080401;28;20028;-65
2022/02/05 13:51:16;;;;;;;18.10;6.07;;;7.00;99.90;;;;;;5080986;28;20590;-65
2022/02/05 13:53:52;;;;;;;;;;;7.00;99.90;;;;;;5078500;28;20089;-64
2022/02/05 13:56:19;;;;;;;14.27;6.13;;;7.00;99.90;;;;;;5077387;28;19912;-65
2022/02/05 13:58:45;;;;;;;15.93;6.43;;;6.90;99.90;;;;;;5079878;28;20016;-65
2022/02/05 14:01:29;;;;;;;14.85;5.82;;;7.00;99.90;;;;;;5081445;28;20028;-65
2022/02/05 14:03:55;;;;;;;15.73;6.45;;;7.10;99.90;;;;;;5097479;28;20032;-64
2022/02/05 14:06:20;;;;;;;19.63;6.43;;;7.00;99.90;;;;;;5101618;28;20024;-64
2022/02/05 14:08:58;;;;;;;16.44;5.97;;;7.00;99.90;;;;;;5012094;28;10000433;-65
2022/02/05 14:11:31;;;;;;;17.23;6.55;;;6.90;99.90;;;;;;5090417;28;20253;-64
2022/02/05 14:14:02;;;;;;;18.15;6.90;;;6.90;99.90;;;;;;5090547;28;20016;-64
2022/02/05 14:16:36;;;;;;;16.85;6.53;;;6.90;99.90;;;;;;5091480;28;20023;-65
2022/02/05 14:19:04;;;;;;;13.25;5.72;;;7.00;99.90;;;;;;5090681;28;20028;-67
2022/02/05 14:21:39;;;;;;;15.20;6.93;;;7.00;99.90;;;;;;5090385;28;20422;-65
2022/02/05 14:24:13;;;;;;;14.23;6.38;;;6.90;99.90;;;;;;5090015;28;20118;-65
2022/02/05 14:26:50;;;;;;;13.52;6.07;;;7.00;99.90;;;;;;5074910;28;20024;-66
2022/02/05 14:29:15;;;;;;;14.75;5.43;;;7.00;99.90;;;;;;4747858;28;10000281;-67
2022/02/05 14:34:14;;;;;;;15.30;6.93;;;7.30;99.90;;;;;;5090291;28;20238;-64
2022/02/05 14:40:18;;;;;;;14.48;5.72;;;7.20;99.90;;;;;;5071655;28;20020;-64
2022/02/05 14:42:21;;;;;;;16.27;6.07;;;7.20;99.90;;;;;;5091449;28;20505;-63
2022/02/05 14:44:51;;;;;;;18.58;6.72;;;7.10;99.90;;;;;;5071211;28;20077;-64
2022/02/05 14:47:21;;;;;;;17.10;6.25;;;7.10;99.90;;;;;;5071110;28;20479;-64
2022/02/05 14:49:46;;;;;;;16.42;6.10;;;7.00;99.90;;;;;;5089731;28;20523;-63
2022/02/05 14:52:15;;;;;;;17.65;6.47;;;7.00;99.90;;;;;;5090259;28;20047;-62
2022/02/05 14:54:42;;;;;;;18.95;6.43;;;7.20;99.90;;;;;;5071408;28;20403;-63
2022/02/05 14:57:09;;;;;;;18.33;6.60;;;7.30;99.90;;;;;;5089863;28;20027;-63
2022/02/05 14:59:35;;;;;;;18.42;6.25;;;7.20;99.90;;;;;;5090379;28;20422;-64
2022/02/05 15:02:04;;;;;;;15.75;6.35;;;7.00;99.90;;;;;;5090361;28;20085;-64
2022/02/05 15:04:53;;;;;;;15.57;6.13;;;6.90;99.90;;;;;;5071272;28;20507;-63
2022/02/05 15:07:19;;;;;;;17.00;6.40;;;6.80;99.90;;;;;;5089869;28;20024;-65
2022/02/05 15:09:45;;;;;;;22.10;6.68;;;6.70;99.90;;;;;;5089400;28;20032;-63
2022/02/05 15:12:11;;;;;;;14.88;6.15;;;6.70;99.90;;;;;;5071823;28;20028;-63
2022/02/05 15:14:37;;;;;;;17.42;5.82;;;6.70;99.90;;;;;;5073759;28;20020;-63
2022/02/05 15:17:04;;;;;;;16.67;5.82;;;6.60;99.90;;;;;;5102428;28;20016;-64
2022/02/05 15:19:30;;;;;;;16.20;5.43;;;6.60;99.90;;;;;;5110157;28;20035;-62
2022/02/05 15:21:55;;;;;;;16.17;6.85;;;6.70;99.90;;;;;;5090903;28;20020;-63
2022/02/05 15:24:21;;;;;;;13.13;5.70;;;6.70;99.90;;;;;;5073736;28;20090;-64
2022/02/05 15:26:46;;;;;;;17.33;6.22;;;6.60;99.90;;;;;;5074248;28;20024;-64
2022/02/05 15:29:13;;;;;;;18.45;5.88;;;6.60;99.90;;;;;;4739779;28;9999824;-63
2022/02/05 15:31:41;;;;;;;16.67;5.78;;;6.60;99.90;;;;;;5105650;28;20032;-63
2022/02/05 15:34:08;;;;;;;;;;;6.70;99.90;;;;;;5091293;28;20032;-62
2022/02/05 15:36:52;;;;;;;12.32;5.22;;;6.70;99.90;;;;;;5109723;28;19908;-62
2022/02/05 15:44:37;;;;;;;15.45;6.00;;;6.60;99.90;;;;;;5094064;28;20097;-64
2022/02/05 15:47:04;;;;;;;12.98;5.80;;;6.60;99.90;;;;;;5070826;28;20032;-61
2022/02/05 15:49:29;;;;;;;16.17;5.40;;;6.60;99.90;;;;;;5073981;28;20055;-64
2022/02/05 15:51:58;;;;;;;16.02;6.38;;;6.60;99.90;;;;;;5093574;28;20027;-62
2022/02/05 15:54:26;;;;;;;17.00;6.03;;;6.60;99.90;;;;;;5112925;28;20125;-64
2022/02/05 15:57:01;;;;;;;16.90;5.55;;;6.50;99.90;;;;;;5113111;28;20035;-65
2022/02/05 15:59:51;;;;;;;16.25;5.72;;;6.60;99.90;;;;;;5112917;28;20020;-64
2022/02/05 16:02:17;;;;;;;18.70;6.28;;;6.60;99.90;;;;;;5113443;28;20016;-63
2022/02/05 16:04:43;;;;;;;15.05;5.25;;;6.50;99.90;;;;;;5112887;28;20483;-64
2022/02/05 16:07:08;;;;;;;15.80;5.60;;;6.50;99.90;;;;;;5112927;28;20220;-63
2022/02/05 16:09:34;;;;;;;16.00;5.50;;;6.50;99.90;;;;;;5094630;28;20155;-63
2022/02/05 16:12:00;;;;;;;18.45;5.97;;;6.50;99.90;;;;;;5112475;28;20038;-63
2022/02/05 16:14:26;;;;;;;17.70;5.97;;;6.50;99.90;;;;;;5104438;28;20046;-62
2022/02/05 16:16:51;;;;;;;13.20;5.60;;;6.50;99.90;;;;;;5073952;28;20032;-62
2022/02/05 16:19:17;;;;;;;14.18;5.65;;;6.60;99.90;;;;;;5074046;28;20024;-62
2022/02/05 16:21:42;;;;;;;16.00;5.65;;;6.60;99.90;;;;;;5073989;28;20028;-61
2022/02/05 16:24:08;;;;;;;15.68;6.65;;;6.60;99.90;;;;;;5092075;28;20080;-63
2022/02/05 16:26:34;;;;;;;14.95;5.65;;;6.50;99.90;;;;;;5092000;28;20020;-61
2022/02/05 16:29:00;;;;;;;13.55;5.57;;;6.50;99.90;;;;;;5092345;28;20024;-64
2022/02/05 16:31:25;;;;;;;14.23;5.50;;;6.50;99.90;;;;;;5106632;28;20027;-62
2022/02/05 16:33:53;;;;;;;13.80;5.20;;;6.60;99.90;;;;;;5112216;28;20103;-61